sensor_id;sensor_type;location;lat;lon;timestamp;temperature;humidity
41985;DHT22;28319;48.116;10.818;2023-02-01T00:23:48;2.50;99.90
41985;DHT22;28319;48.116;10.818;2023-02-01T02:34:25;1.90;99.90
41985;DHT22;28319;48.116;10.818;2023-02-01T02:39:38;2.00;99.90
41985;DHT22;28319;48.116;10.818;2023-02-01T02:44:47;2.10;99.90
41985;DHT22;28319;48.116;10.818;2023-02-01T02:50:15;2.00;99.90
41985;DHT22;28319;48.116;10.818;2023-02-01T02:55:36;2.00;99.90
41985;DHT22;28319;48.116;10.818;2023-02-01T03:00:42;2.10;99.90
41985;DHT22;28319;48.116;10.818;2023-02-01T03:06:03;2.20;99.90
41985;DHT22;28319;48.116;10.818;2023-02-01T03:11:08;2.10;99.90
41985;DHT22;28319;48.116;10.818;2023-02-01T03:16:13;2.10;99.90
41985;DHT22;28319;48.116;10.818;2023-02-01T03:21:21;2.10;99.90
41985;DHT22;28319;48.116;10.818;2023-02-01T03:26:26;2.10;99.90
41985;DHT22;28319;48.116;10.818;2023-02-01T03:31:30;2.20;99.90
41985;DHT22;28319;48.116;10.818;2023-02-01T03:36:37;2.20;99.90
41985;DHT22;28319;48.116;10.818;2023-02-01T03:41:43;2.20;99.90
41985;DHT22;28319;48.116;10.818;2023-02-01T03:46:50;2.20;99.90
41985;DHT22;28319;48.116;10.818;2023-02-01T03:51:56;2.20;99.90
41985;DHT22;28319;48.116;10.818;2023-02-01T03:57:03;2.20;99.90
41985;DHT22;28319;48.116;10.818;2023-02-01T04:02:07;2.20;99.90
41985;DHT22;28319;48.116;10.818;2023-02-01T04:07:10;2.20;99.90
41985;DHT22;28319;48.116;10.818;2023-02-01T04:12:12;2.20;99.90
41985;DHT22;28319;48.116;10.818;2023-02-01T04:17:14;2.20;99.90
41985;DHT22;28319;48.116;10.818;2023-02-01T04:22:18;2.30;99.90
41985;DHT22;28319;48.116;10.818;2023-02-01T04:27:19;2.20;99.90
41985;DHT22;28319;48.116;10.818;2023-02-01T04:32:21;2.30;99.90
41985;DHT22;28319;48.116;10.818;2023-02-01T04:37:25;2.20;99.90
41985;DHT22;28319;48.116;10.818;2023-02-01T04:42:27;2.20;99.90
41985;DHT22;28319;48.116;10.818;2023-02-01T04:47:29;2.20;99.90
41985;DHT22;28319;48.116;10.818;2023-02-01T04:52:32;2.30;99.90
41985;DHT22;28319;48.116;10.818;2023-02-01T04:57:34;2.20;99.90
41985;DHT22;28319;48.116;10.818;2023-02-01T05:02:36;2.20;99.90
41985;DHT22;28319;48.116;10.818;2023-02-01T05:07:39;2.40;99.90
41985;DHT22;28319;48.116;10.818;2023-02-01T05:12:43;2.20;99.90
41985;DHT22;28319;48.116;10.818;2023-02-01T05:18:02;2.40;99.90
41985;DHT22;28319;48.116;10.818;2023-02-01T05:23:05;2.20;99.90
41985;DHT22;28319;48.116;10.818;2023-02-01T05:28:07;2.20;99.90
41985;DHT22;28319;48.116;10.818;2023-02-01T05:33:09;2.20;99.90
41985;DHT22;28319;48.116;10.818;2023-02-01T05:38:13;2.20;99.90
41985;DHT22;28319;48.116;10.818;2023-02-01T05:43:15;2.30;99.90
41985;DHT22;28319;48.116;10.818;2023-02-01T05:48:17;2.30;99.90
41985;DHT22;28319;48.116;10.818;2023-02-01T05:53:21;2.30;99.90
41985;DHT22;28319;48.116;10.818;2023-02-01T05:58:23;2.30;99.90
41985;DHT22;28319;48.116;10.818;2023-02-01T06:03:25;2.30;99.90
41985;DHT22;28319;48.116;10.818;2023-02-01T06:08:29;2.30;99.90
41985;DHT22;28319;48.116;10.818;2023-02-01T06:13:31;2.50;99.90
41985;DHT22;28319;48.116;10.818;2023-02-01T06:18:33;2.20;99.90
41985;DHT22;28319;48.116;10.818;2023-02-01T06:23:36;2.40;99.90
41985;DHT22;28319;48.116;10.818;2023-02-01T06:28:38;2.20;99.90
41985;DHT22;28319;48.116;10.818;2023-02-01T06:33:40;2.20;99.90
41985;DHT22;28319;48.116;10.818;2023-02-01T06:38:44;2.10;99.90
41985;DHT22;28319;48.116;10.818;2023-02-01T06:43:46;2.40;99.90
41985;DHT22;28319;48.116;10.818;2023-02-01T06:48:48;2.40;99.90
41985;DHT22;28319;48.116;10.818;2023-02-01T06:53:53;2.20;99.90
41985;DHT22;28319;48.116;10.818;2023-02-01T06:58:55;2.20;99.90
41985;DHT22;28319;48.116;10.818;2023-02-01T07:03:56;2.30;99.90
41985;DHT22;28319;48.116;10.818;2023-02-01T07:09:00;2.30;99.90
41985;DHT22;28319;48.116;10.818;2023-02-01T07:14:02;2.30;99.90
41985;DHT22;28319;48.116;10.818;2023-02-01T07:19:04;2.60;99.90
41985;DHT22;28319;48.116;10.818;2023-02-01T07:24:07;2.40;99.90
41985;DHT22;28319;48.116;10.818;2023-02-01T07:29:09;2.30;99.90
41985;DHT22;28319;48.116;10.818;2023-02-01T07:34:11;2.50;99.90
41985;DHT22;28319;48.116;10.818;2023-02-01T07:39:15;2.40;99.90
41985;DHT22;28319;48.116;10.818;2023-02-01T07:44:17;2.50;99.90
41985;DHT22;28319;48.116;10.818;2023-02-01T07:49:23;2.60;99.90
41985;DHT22;28319;48.116;10.818;2023-02-01T07:54:26;2.60;99.90
41985;DHT22;28319;48.116;10.818;2023-02-01T07:59:28;2.60;99.90
41985;DHT22;28319;48.116;10.818;2023-02-01T08:04:30;2.70;99.90
41985;DHT22;28319;48.116;10.818;2023-02-01T08:09:33;2.60;99.90
41985;DHT22;28319;48.116;10.818;2023-02-01T08:14:36;2.60;99.90
41985;DHT22;28319;48.116;10.818;2023-02-01T08:19:37;2.80;99.90
41985;DHT22;28319;48.116;10.818;2023-02-01T08:24:41;2.90;99.90
41985;DHT22;28319;48.116;10.818;2023-02-01T08:29:50;2.70;99.90
41985;DHT22;28319;48.116;10.818;2023-02-01T08:34:57;2.60;99.90
41985;DHT22;28319;48.116;10.818;2023-02-01T08:40:42;2.70;99.90
41985;DHT22;28319;48.116;10.818;2023-02-01T08:46:14;2.70;99.90
41985;DHT22;28319;48.116;10.818;2023-02-01T08:51:33;2.70;99.90
41985;DHT22;28319;48.116;10.818;2023-02-01T08:57:17;2.70;99.90
41985;DHT22;28319;48.116;10.818;2023-02-01T09:02:28;2.80;99.90
41985;DHT22;28319;48.116;10.818;2023-02-01T09:07:42;2.80;99.90
41985;DHT22;28319;48.116;10.818;2023-02-01T09:13:10;2.80;99.90
41985;DHT22;28319;48.116;10.818;2023-02-01T09:18:37;2.90;99.90
41985;DHT22;28319;48.116;10.818;2023-02-01T09:23:46;2.80;99.90
41985;DHT22;28319;48.116;10.818;2023-02-01T09:29:01;2.90;99.90
41985;DHT22;28319;48.116;10.818;2023-02-01T09:34:59;2.90;99.90
41985;DHT22;28319;48.116;10.818;2023-02-01T09:40:33;3.00;99.90
41985;DHT22;28319;48.116;10.818;2023-02-01T09:46:32;3.00;99.90
41985;DHT22;28319;48.116;10.818;2023-02-01T09:52:13;3.10;99.90
41985;DHT22;28319;48.116;10.818;2023-02-01T09:57:48;3.50;99.90
41985;DHT22;28319;48.116;10.818;2023-02-01T10:03:36;3.10;99.90
41985;DHT22;28319;48.116;10.818;2023-02-01T10:09:50;3.10;99.90
41985;DHT22;28319;48.116;10.818;2023-02-01T10:15:44;2.60;99.90
41985;DHT22;28319;48.116;10.818;2023-02-01T11:10:37;3.10;99.90
41985;DHT22;28319;48.116;10.818;2023-02-01T11:15:43;3.20;99.90
41985;DHT22;28319;48.116;10.818;2023-02-01T11:20:46;3.20;99.90
41985;DHT22;28319;48.116;10.818;2023-02-01T11:25:55;3.20;99.90
41985;DHT22;28319;48.116;10.818;2023-02-01T11:31:01;3.30;99.90
41985;DHT22;28319;48.116;10.818;2023-02-01T11:36:07;3.20;99.90
41985;DHT22;28319;48.116;10.818;2023-02-01T11:41:21;3.30;99.90
41985;DHT22;28319;48.116;10.818;2023-02-01T11:46:28;3.30;99.90
41985;DHT22;28319;48.116;10.818;2023-02-01T11:51:42;3.40;99.90
41985;DHT22;28319;48.116;10.818;2023-02-01T11:56:59;3.40;99.90
41985;DHT22;28319;48.116;10.818;2023-02-01T12:02:26;3.50;99.90
41985;DHT22;28319;48.116;10.818;2023-02-01T12:07:41;3.50;99.90
41985;DHT22;28319;48.116;10.818;2023-02-01T12:12:58;3.40;99.90
41985;DHT22;28319;48.116;10.818;2023-02-01T12:18:25;3.50;99.90
41985;DHT22;28319;48.116;10.818;2023-02-01T12:23:44;3.50;99.90
41985;DHT22;28319;48.116;10.818;2023-02-01T12:29:14;3.40;99.90
41985;DHT22;28319;48.116;10.818;2023-02-01T12:34:33;3.50;99.90
41985;DHT22;28319;48.116;10.818;2023-02-01T12:39:39;3.40;99.90
41985;DHT22;28319;48.116;10.818;2023-02-01T12:44:49;3.40;99.90
41985;DHT22;28319;48.116;10.818;2023-02-01T12:49:56;3.40;99.90
41985;DHT22;28319;48.116;10.818;2023-02-01T12:55:04;3.40;99.90
41985;DHT22;28319;48.116;10.818;2023-02-01T13:00:18;3.40;99.90
41985;DHT22;28319;48.116;10.818;2023-02-01T13:05:28;3.50;99.90
41985;DHT22;28319;48.116;10.818;2023-02-01T13:10:33;3.50;99.90
41985;DHT22;28319;48.116;10.818;2023-02-01T13:15:41;3.60;99.90
41985;DHT22;28319;48.116;10.818;2023-02-01T13:20:51;3.60;99.90
41985;DHT22;28319;48.116;10.818;2023-02-01T13:25:55;3.70;99.90
41985;DHT22;28319;48.116;10.818;2023-02-01T13:31:22;3.60;99.90
41985;DHT22;28319;48.116;10.818;2023-02-01T13:36:44;3.60;99.90
41985;DHT22;28319;48.116;10.818;2023-02-01T13:41:54;3.50;99.90
41985;DHT22;28319;48.116;10.818;2023-02-01T13:47:00;3.50;99.90
41985;DHT22;28319;48.116;10.818;2023-02-01T13:52:04;3.60;99.90
41985;DHT22;28319;48.116;10.818;2023-02-01T13:57:30;3.60;99.90
41985;DHT22;28319;48.116;10.818;2023-02-01T14:08:25;3.60;99.90
41985;DHT22;28319;48.116;10.818;2023-02-01T14:13:38;3.60;99.90
41985;DHT22;28319;48.116;10.818;2023-02-01T14:18:59;3.50;99.90
41985;DHT22;28319;48.116;10.818;2023-02-01T14:24:19;3.50;99.90
41985;DHT22;28319;48.116;10.818;2023-02-01T14:29:27;3.50;99.90
41985;DHT22;28319;48.116;10.818;2023-02-01T14:34:39;3.40;99.90
41985;DHT22;28319;48.116;10.818;2023-02-01T14:39:55;3.30;99.90
41985;DHT22;28319;48.116;10.818;2023-02-01T14:50:49;3.10;99.90
41985;DHT22;28319;48.116;10.818;2023-02-01T14:55:57;3.10;99.90
41985;DHT22;28319;48.116;10.818;2023-02-01T15:01:04;2.90;99.90
41985;DHT22;28319;48.116;10.818;2023-02-01T15:06:21;2.90;99.90
41985;DHT22;28319;48.116;10.818;2023-02-01T15:11:26;2.90;99.90
41985;DHT22;28319;48.116;10.818;2023-02-01T15:16:28;2.90;99.90
41985;DHT22;28319;48.116;10.818;2023-02-01T15:21:30;2.90;99.90
41985;DHT22;28319;48.116;10.818;2023-02-01T15:26:34;2.90;99.90
41985;DHT22;28319;48.116;10.818;2023-02-01T15:31:38;2.80;99.90
41985;DHT22;28319;48.116;10.818;2023-02-01T15:36:42;2.80;99.90
41985;DHT22;28319;48.116;10.818;2023-02-01T15:41:53;2.80;99.90
41985;DHT22;28319;48.116;10.818;2023-02-01T15:46:56;2.80;99.90
41985;DHT22;28319;48.116;10.818;2023-02-01T15:52:01;2.80;99.90
41985;DHT22;28319;48.116;10.818;2023-02-01T15:57:05;2.80;99.90
41985;DHT22;28319;48.116;10.818;2023-02-01T16:02:26;2.90;99.90
41985;DHT22;28319;48.116;10.818;2023-02-01T16:07:31;2.90;99.90
41985;DHT22;28319;48.116;10.818;2023-02-01T16:12:46;3.00;99.90
41985;DHT22;28319;48.116;10.818;2023-02-01T16:17:48;3.00;99.90
41985;DHT22;28319;48.116;10.818;2023-02-01T16:22:50;3.10;99.90
41985;DHT22;28319;48.116;10.818;2023-02-01T16:27:54;3.10;99.90
41985;DHT22;28319;48.116;10.818;2023-02-01T16:32:57;3.10;99.90
41985;DHT22;28319;48.116;10.818;2023-02-01T16:38:00;3.10;99.90
41985;DHT22;28319;48.116;10.818;2023-02-01T16:43:11;3.10;99.90
41985;DHT22;28319;48.116;10.818;2023-02-01T16:48:18;3.20;99.90
41985;DHT22;28319;48.116;10.818;2023-02-01T16:53:21;3.20;99.90
41985;DHT22;28319;48.116;10.818;2023-02-01T16:58:26;3.20;99.90
41985;DHT22;28319;48.116;10.818;2023-02-01T17:03:28;3.20;99.90
41985;DHT22;28319;48.116;10.818;2023-02-01T17:08:32;3.20;99.90
41985;DHT22;28319;48.116;10.818;2023-02-01T17:13:38;3.20;99.90
41985;DHT22;28319;48.116;10.818;2023-02-01T17:18:42;3.20;99.90
41985;DHT22;28319;48.116;10.818;2023-02-01T17:23:44;3.20;99.90
41985;DHT22;28319;48.116;10.818;2023-02-01T17:28:47;3.20;99.90
41985;DHT22;28319;48.116;10.818;2023-02-01T17:33:49;3.30;99.90
41985;DHT22;28319;48.116;10.818;2023-02-01T17:38:54;3.30;99.90
41985;DHT22;28319;48.116;10.818;2023-02-01T17:43:58;3.30;99.90
41985;DHT22;28319;48.116;10.818;2023-02-01T17:49:00;3.30;99.90
41985;DHT22;28319;48.116;10.818;2023-02-01T17:54:03;3.40;99.90
41985;DHT22;28319;48.116;10.818;2023-02-01T17:59:07;3.40;99.90
41985;DHT22;28319;48.116;10.818;2023-02-01T18:04:12;3.40;99.90
41985;DHT22;28319;48.116;10.818;2023-02-01T18:09:16;3.30;99.90
41985;DHT22;28319;48.116;10.818;2023-02-01T18:14:19;3.30;99.90
41985;DHT22;28319;48.116;10.818;2023-02-01T18:19:21;3.30;99.90
41985;DHT22;28319;48.116;10.818;2023-02-01T18:24:23;3.30;99.90
41985;DHT22;28319;48.116;10.818;2023-02-01T18:29:28;3.30;99.90
41985;DHT22;28319;48.116;10.818;2023-02-01T18:34:30;3.40;99.90
41985;DHT22;28319;48.116;10.818;2023-02-01T18:39:32;3.40;99.90
41985;DHT22;28319;48.116;10.818;2023-02-01T18:44:36;3.40;99.90
41985;DHT22;28319;48.116;10.818;2023-02-01T18:49:38;3.40;99.90
41985;DHT22;28319;48.116;10.818;2023-02-01T18:54:40;3.30;99.90
41985;DHT22;28319;48.116;10.818;2023-02-01T18:59:44;3.30;99.90
41985;DHT22;28319;48.116;10.818;2023-02-01T19:04:46;3.40;99.90
41985;DHT22;28319;48.116;10.818;2023-02-01T19:09:48;3.40;99.90
41985;DHT22;28319;48.116;10.818;2023-02-01T19:14:53;3.40;99.90
41985;DHT22;28319;48.116;10.818;2023-02-01T19:19:55;3.50;99.90
41985;DHT22;28319;48.116;10.818;2023-02-01T19:24:58;3.40;99.90
41985;DHT22;28319;48.116;10.818;2023-02-01T19:30:03;3.40;99.90
41985;DHT22;28319;48.116;10.818;2023-02-01T19:35:07;3.40;99.90
41985;DHT22;28319;48.116;10.818;2023-02-01T19:40:12;3.40;99.90
41985;DHT22;28319;48.116;10.818;2023-02-01T19:45:16;3.40;99.90
41985;DHT22;28319;48.116;10.818;2023-02-01T19:50:20;3.40;99.90
41985;DHT22;28319;48.116;10.818;2023-02-01T19:55:22;3.40;99.90
41985;DHT22;28319;48.116;10.818;2023-02-01T20:00:26;3.40;99.90
41985;DHT22;28319;48.116;10.818;2023-02-01T20:05:28;3.40;99.90
41985;DHT22;28319;48.116;10.818;2023-02-01T20:10:30;3.40;99.90
41985;DHT22;28319;48.116;10.818;2023-02-01T20:15:34;3.40;99.90
41985;DHT22;28319;48.116;10.818;2023-02-01T20:20:36;3.40;99.90
41985;DHT22;28319;48.116;10.818;2023-02-01T20:25:38;3.50;99.90
41985;DHT22;28319;48.116;10.818;2023-02-01T20:37:51;3.40;99.90
41985;DHT22;28319;48.116;10.818;2023-02-01T20:49:23;3.50;99.90
41985;DHT22;28319;48.116;10.818;2023-02-01T21:32:26;3.50;99.90
41985;DHT22;28319;48.116;10.818;2023-02-01T21:44:53;3.50;99.90
41985;DHT22;28319;48.116;10.818;2023-02-01T22:33:53;3.40;99.90
41985;DHT22;28319;48.116;10.818;2023-02-01T22:39:46;3.50;99.90
41985;DHT22;28319;48.116;10.818;2023-02-01T23:35:48;3.40;99.90
41985;DHT22;28319;48.116;10.818;2023-02-01T23:40:42;3.90;99.90
41985;DHT22;28319;48.116;10.818;2023-02-01T23:45:59;3.40;99.90
